sensor_id;sensor_type;location;lat;lon;timestamp;pressure;altitude;pressure_sealevel;temperature;humidity
69306;BME280;56427;51.580;4.656;2023-01-25T00:01:44;103742.31;;;0.11;100.00
69306;BME280;56427;51.580;4.656;2023-01-25T00:04:11;103743.88;;;-0.04;100.00
69306;BME280;56427;51.580;4.656;2023-01-25T00:06:36;103738.09;;;0.16;100.00
69306;BME280;56427;51.580;4.656;2023-01-25T00:09:02;103740.69;;;0.22;100.00
69306;BME280;56427;51.580;4.656;2023-01-25T00:11:27;103734.81;;;0.35;100.00
69306;BME280;56427;51.580;4.656;2023-01-25T00:13:53;103732.94;;;0.08;100.00
69306;BME280;56427;51.580;4.656;2023-01-25T00:16:19;103737.13;;;0.05;100.00
69306;BME280;56427;51.580;4.656;2023-01-25T00:18:45;103738.88;;;0.09;100.00
69306;BME280;56427;51.580;4.656;2023-01-25T00:21:15;103726.91;;;0.02;100.00
69306;BME280;56427;51.580;4.656;2023-01-25T00:23:41;103726.91;;;0.03;100.00
69306;BME280;56427;51.580;4.656;2023-01-25T00:26:06;103733.75;;;0.04;100.00
69306;BME280;56427;51.580;4.656;2023-01-25T00:28:31;103730.38;;;0.08;100.00
69306;BME280;56427;51.580;4.656;2023-01-25T00:31:04;103727.78;;;0.04;100.00
69306;BME280;56427;51.580;4.656;2023-01-25T00:36:02;103729.34;;;-0.14;100.00
69306;BME280;56427;51.580;4.656;2023-01-25T00:38:47;103717.28;;;-0.32;100.00
69306;BME280;56427;51.580;4.656;2023-01-25T00:41:13;103715.59;;;-0.28;100.00
69306;BME280;56427;51.580;4.656;2023-01-25T00:43:38;103713.28;;;0.01;100.00
69306;BME280;56427;51.580;4.656;2023-01-25T00:46:04;103713.22;;;-0.08;100.00
69306;BME280;56427;51.580;4.656;2023-01-25T00:48:29;103714.94;;;-0.04;100.00
69306;BME280;56427;51.580;4.656;2023-01-25T00:50:59;103711.47;;;-0.15;100.00
69306;BME280;56427;51.580;4.656;2023-01-25T00:53:24;103706.47;;;0.02;100.00
69306;BME280;56427;51.580;4.656;2023-01-25T00:55:51;103697.75;;;-0.27;100.00
69306;BME280;56427;51.580;4.656;2023-01-25T00:58:16;103704.53;;;-0.29;100.00
69306;BME280;56427;51.580;4.656;2023-01-25T01:00:42;103696.94;;;-0.23;100.00
69306;BME280;56427;51.580;4.656;2023-01-25T01:03:07;103698.63;;;-0.25;100.00
69306;BME280;56427;51.580;4.656;2023-01-25T01:05:32;103694.28;;;-0.33;100.00
69306;BME280;56427;51.580;4.656;2023-01-25T01:08:00;103692.66;;;-0.24;100.00
69306;BME280;56427;51.580;4.656;2023-01-25T01:10:25;103698.63;;;-0.26;100.00
69306;BME280;56427;51.580;4.656;2023-01-25T01:12:51;103698.69;;;-0.17;100.00
69306;BME280;56427;51.580;4.656;2023-01-25T01:15:16;103701.22;;;-0.17;100.00
69306;BME280;56427;51.580;4.656;2023-01-25T01:17:41;103703.63;;;-0.37;100.00
69306;BME280;56427;51.580;4.656;2023-01-25T01:20:07;103698.28;;;-0.63;100.00
69306;BME280;56427;51.580;4.656;2023-01-25T01:22:33;103688.38;;;-0.31;100.00
69306;BME280;56427;51.580;4.656;2023-01-25T01:24:58;103693.66;;;-0.08;100.00
69306;BME280;56427;51.580;4.656;2023-01-25T01:27:23;103703.00;;;-0.11;100.00
69306;BME280;56427;51.580;4.656;2023-01-25T01:29:49;103694.63;;;0.07;100.00
69306;BME280;56427;51.580;4.656;2023-01-25T01:32:14;103696.38;;;0.15;100.00
69306;BME280;56427;51.580;4.656;2023-01-25T01:34:39;103705.53;;;-0.13;100.00
69306;BME280;56427;51.580;4.656;2023-01-25T01:37:05;103695.09;;;-0.41;100.00
69306;BME280;56427;51.580;4.656;2023-01-25T01:39:30;103707.97;;;-0.24;100.00
69306;BME280;56427;51.580;4.656;2023-01-25T01:41:55;103708.78;;;-0.31;100.00
69306;BME280;56427;51.580;4.656;2023-01-25T01:44:43;103706.28;;;-0.22;100.00
69306;BME280;56427;51.580;4.656;2023-01-25T01:47:24;103702.09;;;-0.13;100.00
69306;BME280;56427;51.580;4.656;2023-01-25T01:49:57;103691.03;;;-0.17;100.00
69306;BME280;56427;51.580;4.656;2023-01-25T01:52:30;103695.28;;;-0.17;100.00
69306;BME280;56427;51.580;4.656;2023-01-25T01:55:13;103692.00;;;-0.03;100.00
69306;BME280;56427;51.580;4.656;2023-01-25T01:57:51;103695.16;;;-0.31;100.00
69306;BME280;56427;51.580;4.656;2023-01-25T02:00:22;103696.06;;;-0.28;100.00
69306;BME280;56427;51.580;4.656;2023-01-25T02:02:49;103689.97;;;-0.42;100.00
69306;BME280;56427;51.580;4.656;2023-01-25T02:08:13;103694.81;;;-0.68;100.00
69306;BME280;56427;51.580;4.656;2023-01-25T02:10:41;103687.31;;;-0.53;100.00
69306;BME280;56427;51.580;4.656;2023-01-25T02:13:08;103697.41;;;-0.64;100.00
69306;BME280;56427;51.580;4.656;2023-01-25T02:15:40;103687.25;;;-0.61;100.00
69306;BME280;56427;51.580;4.656;2023-01-25T02:18:07;103688.91;;;-0.64;100.00
69306;BME280;56427;51.580;4.656;2023-01-25T02:20:42;103685.44;;;-0.71;100.00
69306;BME280;56427;51.580;4.656;2023-01-25T02:26:02;103686.66;;;-0.32;100.00
69306;BME280;56427;51.580;4.656;2023-01-25T02:28:38;103689.09;;;-0.46;100.00
69306;BME280;56427;51.580;4.656;2023-01-25T02:31:05;103684.03;;;-0.43;100.00
69306;BME280;56427;51.580;4.656;2023-01-25T02:33:31;103680.50;;;-0.54;100.00
69306;BME280;56427;51.580;4.656;2023-01-25T02:36:20;103671.53;;;-0.07;100.00
69306;BME280;56427;51.580;4.656;2023-01-25T02:38:53;103675.69;;;-0.17;100.00
69306;BME280;56427;51.580;4.656;2023-01-25T02:41:29;103680.84;;;-0.12;100.00
69306;BME280;56427;51.580;4.656;2023-01-25T02:43:56;103680.75;;;-0.23;100.00
69306;BME280;56427;51.580;4.656;2023-01-25T02:46:24;103674.72;;;-0.34;100.00
69306;BME280;56427;51.580;4.656;2023-01-25T02:48:53;103678.94;;;-0.41;100.00
69306;BME280;56427;51.580;4.656;2023-01-25T02:51:20;103670.31;;;-0.52;100.00
69306;BME280;56427;51.580;4.656;2023-01-25T02:53:46;103667.97;;;-0.28;100.00
69306;BME280;56427;51.580;4.656;2023-01-25T02:56:11;103666.16;;;-0.41;100.00
69306;BME280;56427;51.580;4.656;2023-01-25T02:58:36;103668.72;;;-0.43;100.00
69306;BME280;56427;51.580;4.656;2023-01-25T03:01:02;103667.88;;;-0.40;100.00
69306;BME280;56427;51.580;4.656;2023-01-25T03:03:27;103667.63;;;-0.66;100.00
69306;BME280;56427;51.580;4.656;2023-01-25T03:05:53;103659.91;;;-0.71;100.00
69306;BME280;56427;51.580;4.656;2023-01-25T03:08:18;103662.63;;;-0.57;100.00
69306;BME280;56427;51.580;4.656;2023-01-25T03:10:43;103660.84;;;-0.67;100.00
69306;BME280;56427;51.580;4.656;2023-01-25T03:13:08;103653.25;;;-0.57;100.00
69306;BME280;56427;51.580;4.656;2023-01-25T03:15:35;103649.75;;;-0.68;100.00
69306;BME280;56427;51.580;4.656;2023-01-25T03:18:00;103648.16;;;-0.58;100.00
69306;BME280;56427;51.580;4.656;2023-01-25T03:20:25;103647.28;;;-0.60;100.00
69306;BME280;56427;51.580;4.656;2023-01-25T03:22:51;103639.63;;;-0.62;100.00
69306;BME280;56427;51.580;4.656;2023-01-25T03:25:16;103638.81;;;-0.56;100.00
69306;BME280;56427;51.580;4.656;2023-01-25T03:27:41;103635.25;;;-0.73;100.00
69306;BME280;56427;51.580;4.656;2023-01-25T03:30:08;103632.91;;;-0.50;100.00
69306;BME280;56427;51.580;4.656;2023-01-25T03:32:33;103633.47;;;-0.84;100.00
69306;BME280;56427;51.580;4.656;2023-01-25T03:34:59;103631.97;;;-0.62;100.00
69306;BME280;56427;51.580;4.656;2023-01-25T03:37:24;103625.72;;;-0.93;100.00
69306;BME280;56427;51.580;4.656;2023-01-25T03:39:55;103626.63;;;-0.88;100.00
69306;BME280;56427;51.580;4.656;2023-01-25T03:42:20;103626.78;;;-0.74;100.00
69306;BME280;56427;51.580;4.656;2023-01-25T03:44:46;103616.72;;;-0.57;100.00
69306;BME280;56427;51.580;4.656;2023-01-25T03:47:11;103623.28;;;-0.82;100.00
69306;BME280;56427;51.580;4.656;2023-01-25T03:49:36;103619.03;;;-0.83;100.00
69306;BME280;56427;51.580;4.656;2023-01-25T03:52:02;103607.09;;;-0.84;100.00
69306;BME280;56427;51.580;4.656;2023-01-25T03:54:27;103607.13;;;-0.81;100.00
69306;BME280;56427;51.580;4.656;2023-01-25T03:56:53;103614.94;;;-0.67;100.00
69306;BME280;56427;51.580;4.656;2023-01-25T03:59:18;103623.50;;;-0.59;100.00
69306;BME280;56427;51.580;4.656;2023-01-25T04:01:43;103612.38;;;-0.63;100.00
69306;BME280;56427;51.580;4.656;2023-01-25T04:04:09;103618.09;;;-0.90;100.00
69306;BME280;56427;51.580;4.656;2023-01-25T04:06:34;103620.53;;;-1.01;100.00
69306;BME280;56427;51.580;4.656;2023-01-25T04:08:59;103609.53;;;-0.97;100.00
69306;BME280;56427;51.580;4.656;2023-01-25T04:11:25;103605.31;;;-0.93;100.00
69306;BME280;56427;51.580;4.656;2023-01-25T04:13:50;103600.28;;;-0.88;100.00
69306;BME280;56427;51.580;4.656;2023-01-25T04:16:15;103607.91;;;-0.91;100.00
69306;BME280;56427;51.580;4.656;2023-01-25T04:18:40;103612.22;;;-0.83;100.00
69306;BME280;56427;51.580;4.656;2023-01-25T04:21:06;103619.09;;;-0.72;100.00
69306;BME280;56427;51.580;4.656;2023-01-25T04:23:32;103613.06;;;-0.85;100.00
69306;BME280;56427;51.580;4.656;2023-01-25T04:25:59;103608.72;;;-0.93;100.00
69306;BME280;56427;51.580;4.656;2023-01-25T04:28:26;103615.47;;;-0.99;100.00
69306;BME280;56427;51.580;4.656;2023-01-25T04:30:52;103613.06;;;-0.81;100.00
69306;BME280;56427;51.580;4.656;2023-01-25T04:33:18;103619.00;;;-0.85;100.00
69306;BME280;56427;51.580;4.656;2023-01-25T04:35:43;103617.19;;;-0.97;100.00
69306;BME280;56427;51.580;4.656;2023-01-25T04:38:10;103618.88;;;-0.97;100.00
69306;BME280;56427;51.580;4.656;2023-01-25T04:40:36;103623.13;;;-0.96;100.00
69306;BME280;56427;51.580;4.656;2023-01-25T04:43:01;103616.56;;;-0.71;100.00
69306;BME280;56427;51.580;4.656;2023-01-25T04:45:27;103621.53;;;-0.88;100.00
69306;BME280;56427;51.580;4.656;2023-01-25T04:48:00;103612.13;;;-0.95;100.00
69306;BME280;56427;51.580;4.656;2023-01-25T04:50:26;103612.97;;;-0.93;100.00
69306;BME280;56427;51.580;4.656;2023-01-25T04:52:52;103605.25;;;-0.99;100.00
69306;BME280;56427;51.580;4.656;2023-01-25T04:55:18;103606.13;;;-0.97;100.00
69306;BME280;56427;51.580;4.656;2023-01-25T04:57:43;103596.94;;;-0.80;100.00
69306;BME280;56427;51.580;4.656;2023-01-25T05:00:09;103597.81;;;-0.76;100.00
69306;BME280;56427;51.580;4.656;2023-01-25T05:02:35;103597.63;;;-0.99;100.00
69306;BME280;56427;51.580;4.656;2023-01-25T05:05:00;103589.06;;;-1.06;100.00
69306;BME280;56427;51.580;4.656;2023-01-25T05:07:25;103582.09;;;-1.22;100.00
69306;BME280;56427;51.580;4.656;2023-01-25T05:09:51;103584.66;;;-1.21;100.00
69306;BME280;56427;51.580;4.656;2023-01-25T05:12:16;103578.72;;;-1.20;100.00
69306;BME280;56427;51.580;4.656;2023-01-25T05:14:41;103583.88;;;-1.14;100.00
69306;BME280;56427;51.580;4.656;2023-01-25T05:17:07;103584.88;;;-0.98;100.00
69306;BME280;56427;51.580;4.656;2023-01-25T05:19:34;103579.94;;;-0.81;100.00
69306;BME280;56427;51.580;4.656;2023-01-25T05:22:00;103571.53;;;-0.70;100.00
69306;BME280;56427;51.580;4.656;2023-01-25T05:24:29;103570.56;;;-0.83;100.00
69306;BME280;56427;51.580;4.656;2023-01-25T05:26:55;103575.53;;;-0.99;100.00
69306;BME280;56427;51.580;4.656;2023-01-25T05:29:32;103568.38;;;-1.34;100.00
69306;BME280;56427;51.580;4.656;2023-01-25T05:32:21;103574.38;;;-1.28;100.00
69306;BME280;56427;51.580;4.656;2023-01-25T05:34:46;103570.19;;;-1.22;100.00
69306;BME280;56427;51.580;4.656;2023-01-25T05:37:14;103570.97;;;-1.29;100.00
69306;BME280;56427;51.580;4.656;2023-01-25T05:39:40;103575.22;;;-1.31;100.00
69306;BME280;56427;51.580;4.656;2023-01-25T05:42:16;103568.31;;;-1.38;100.00
69306;BME280;56427;51.580;4.656;2023-01-25T05:44:42;103572.72;;;-1.26;100.00
69306;BME280;56427;51.580;4.656;2023-01-25T05:47:12;103575.38;;;-1.14;100.00
69306;BME280;56427;51.580;4.656;2023-01-25T05:49:38;103565.16;;;-1.16;100.00
69306;BME280;56427;51.580;4.656;2023-01-25T05:52:03;103565.97;;;-1.21;100.00
69306;BME280;56427;51.580;4.656;2023-01-25T05:54:29;103569.25;;;-1.33;100.00
69306;BME280;56427;51.580;4.656;2023-01-25T05:56:54;103566.81;;;-1.21;100.00
69306;BME280;56427;51.580;4.656;2023-01-25T05:59:20;103565.97;;;-1.21;100.00
69306;BME280;56427;51.580;4.656;2023-01-25T06:01:45;103568.56;;;-1.17;100.00
69306;BME280;56427;51.580;4.656;2023-01-25T06:04:13;103560.03;;;-1.19;100.00
69306;BME280;56427;51.580;4.656;2023-01-25T06:06:39;103562.50;;;-1.28;100.00
69306;BME280;56427;51.580;4.656;2023-01-25T06:09:04;103557.41;;;-1.28;100.00
69306;BME280;56427;51.580;4.656;2023-01-25T06:11:29;103561.78;;;-1.16;100.00
69306;BME280;56427;51.580;4.656;2023-01-25T06:13:55;103567.72;;;-1.16;100.00
69306;BME280;56427;51.580;4.656;2023-01-25T06:16:21;103567.75;;;-1.11;100.00
69306;BME280;56427;51.580;4.656;2023-01-25T06:18:46;103556.66;;;-1.18;100.00
69306;BME280;56427;51.580;4.656;2023-01-25T06:21:11;103563.38;;;-1.26;100.00
69306;BME280;56427;51.580;4.656;2023-01-25T06:23:37;103571.13;;;-1.15;100.00
69306;BME280;56427;51.580;4.656;2023-01-25T06:26:05;103567.63;;;-1.26;100.00
69306;BME280;56427;51.580;4.656;2023-01-25T06:28:32;103562.41;;;-1.37;100.00
69306;BME280;56427;51.580;4.656;2023-01-25T06:31:09;103569.25;;;-1.33;100.00
69306;BME280;56427;51.580;4.656;2023-01-25T06:33:35;103561.28;;;-1.62;100.00
69306;BME280;56427;51.580;4.656;2023-01-25T06:36:03;103570.59;;;-1.64;100.00
69306;BME280;56427;51.580;4.656;2023-01-25T06:38:29;103569.00;;;-1.56;100.00
69306;BME280;56427;51.580;4.656;2023-01-25T06:41:00;103571.72;;;-1.41;100.00
69306;BME280;56427;51.580;4.656;2023-01-25T06:43:26;103568.41;;;-1.32;100.00
69306;BME280;56427;51.580;4.656;2023-01-25T06:45:51;103566.09;;;-1.07;100.00
69306;BME280;56427;51.580;4.656;2023-01-25T06:48:16;103570.50;;;-0.89;100.00
69306;BME280;56427;51.580;4.656;2023-01-25T06:50:42;103569.38;;;-1.19;100.00
69306;BME280;56427;51.580;4.656;2023-01-25T06:53:07;103571.09;;;-1.20;100.00
69306;BME280;56427;51.580;4.656;2023-01-25T06:55:33;103567.75;;;-1.13;100.00
69306;BME280;56427;51.580;4.656;2023-01-25T06:57:59;103578.84;;;-1.07;100.00
69306;BME280;56427;51.580;4.656;2023-01-25T07:00:25;103576.28;;;-1.07;100.00
69306;BME280;56427;51.580;4.656;2023-01-25T07:02:50;103578.81;;;-1.09;100.00
69306;BME280;56427;51.580;4.656;2023-01-25T07:05:16;103581.34;;;-1.12;100.00
69306;BME280;56427;51.580;4.656;2023-01-25T07:07:44;103576.25;;;-1.11;100.00
69306;BME280;56427;51.580;4.656;2023-01-25T07:10:10;103566.09;;;-1.07;100.00
69306;BME280;56427;51.580;4.656;2023-01-25T07:12:36;103566.75;;;-1.25;100.00
69306;BME280;56427;51.580;4.656;2023-01-25T07:15:01;103560.53;;;-1.52;100.00
69306;BME280;56427;51.580;4.656;2023-01-25T07:17:27;103558.97;;;-1.41;100.00
69306;BME280;56427;51.580;4.656;2023-01-25T07:19:52;103556.41;;;-1.42;100.00
69306;BME280;56427;51.580;4.656;2023-01-25T07:22:17;103558.38;;;-1.17;100.00
69306;BME280;56427;51.580;4.656;2023-01-25T07:24:43;103557.50;;;-1.17;100.00
69306;BME280;56427;51.580;4.656;2023-01-25T07:27:14;103551.69;;;-1.07;100.00
69306;BME280;56427;51.580;4.656;2023-01-25T07:29:40;103550.56;;;-1.31;100.00
69306;BME280;56427;51.580;4.656;2023-01-25T07:32:05;103550.03;;;-1.02;100.00
69306;BME280;56427;51.580;4.656;2023-01-25T07:34:31;103547.97;;;-1.35;100.00
69306;BME280;56427;51.580;4.656;2023-01-25T07:36:56;103542.03;;;-1.36;100.00
69306;BME280;56427;51.580;4.656;2023-01-25T07:39:21;103551.38;;;-1.38;100.00
69306;BME280;56427;51.580;4.656;2023-01-25T07:41:47;103553.81;;;-1.45;100.00
69306;BME280;56427;51.580;4.656;2023-01-25T07:44:12;103559.97;;;-1.26;100.00
69306;BME280;56427;51.580;4.656;2023-01-25T07:46:37;103552.25;;;-1.33;100.00
69306;BME280;56427;51.580;4.656;2023-01-25T07:49:02;103559.06;;;-1.32;100.00
69306;BME280;56427;51.580;4.656;2023-01-25T07:51:28;103548.44;;;-0.86;100.00
69306;BME280;56427;51.580;4.656;2023-01-25T07:53:57;103544.81;;;-1.13;100.00
69306;BME280;56427;51.580;4.656;2023-01-25T07:56:27;103540.56;;;-1.11;100.00
69306;BME280;56427;51.580;4.656;2023-01-25T07:58:55;103537.13;;;-1.16;100.00
69306;BME280;56427;51.580;4.656;2023-01-25T08:01:22;103525.97;;;-1.27;100.00
69306;BME280;56427;51.580;4.656;2023-01-25T08:03:48;103524.41;;;-1.14;100.00
69306;BME280;56427;51.580;4.656;2023-01-25T08:06:14;103526.88;;;-1.20;100.00
69306;BME280;56427;51.580;4.656;2023-01-25T08:08:45;103526.91;;;-1.19;100.00
69306;BME280;56427;51.580;4.656;2023-01-25T08:11:30;103526.88;;;-1.22;100.00
69306;BME280;56427;51.580;4.656;2023-01-25T08:13:55;103532.81;;;-1.23;100.00
69306;BME280;56427;51.580;4.656;2023-01-25T08:16:23;103524.44;;;-1.09;100.00
69306;BME280;56427;51.580;4.656;2023-01-25T08:18:51;103520.34;;;-0.94;100.00
69306;BME280;56427;51.580;4.656;2023-01-25T08:21:17;103528.91;;;-0.87;100.00
69306;BME280;56427;51.580;4.656;2023-01-25T08:23:42;103522.25;;;-0.66;100.00
69306;BME280;56427;51.580;4.656;2023-01-25T08:26:10;103522.09;;;-0.86;100.00
69306;BME280;56427;51.580;4.656;2023-01-25T08:28:36;103516.09;;;-0.91;100.00
69306;BME280;56427;51.580;4.656;2023-01-25T08:31:06;103530.44;;;-1.04;100.00
69306;BME280;56427;51.580;4.656;2023-01-25T08:33:33;103526.84;;;-1.28;100.00
69306;BME280;56427;51.580;4.656;2023-01-25T08:35:58;103522.22;;;-1.61;100.00
69306;BME280;56427;51.580;4.656;2023-01-25T08:38:23;103518.03;;;-1.55;100.00
69306;BME280;56427;51.580;4.656;2023-01-25T08:40:49;103523.41;;;-1.32;100.00
69306;BME280;56427;51.580;4.656;2023-01-25T08:43:15;103520.72;;;-1.44;100.00
69306;BME280;56427;51.580;4.656;2023-01-25T08:45:40;103518.97;;;-1.46;100.00
69306;BME280;56427;51.580;4.656;2023-01-25T08:48:05;103520.75;;;-1.42;100.00
69306;BME280;56427;51.580;4.656;2023-01-25T08:50:31;103519.22;;;-1.25;100.00
69306;BME280;56427;51.580;4.656;2023-01-25T08:52:56;103512.56;;;-1.07;100.00
69306;BME280;56427;51.580;4.656;2023-01-25T08:55:21;103515.75;;;-1.33;100.00
69306;BME280;56427;51.580;4.656;2023-01-25T08:57:47;103518.19;;;-1.44;100.00
69306;BME280;56427;51.580;4.656;2023-01-25T09:00:13;103515.41;;;-1.65;100.00
69306;BME280;56427;51.580;4.656;2023-01-25T09:02:39;103522.22;;;-1.64;100.00
69306;BME280;56427;51.580;4.656;2023-01-25T09:05:04;103520.53;;;-1.62;100.00
69306;BME280;56427;51.580;4.656;2023-01-25T09:07:30;103512.88;;;-1.62;100.00
69306;BME280;56427;51.580;4.656;2023-01-25T09:09:57;103513.94;;;-1.42;100.00
69306;BME280;56427;51.580;4.656;2023-01-25T09:12:23;103520.06;;;-1.26;100.00
69306;BME280;56427;51.580;4.656;2023-01-25T09:14:48;103511.66;;;-1.16;100.00
69306;BME280;56427;51.580;4.656;2023-01-25T09:17:13;103516.03;;;-0.99;100.00
69306;BME280;56427;51.580;4.656;2023-01-25T09:19:39;103515.94;;;-1.13;100.00
69306;BME280;56427;51.580;4.656;2023-01-25T09:22:06;103515.75;;;-1.28;100.00
69306;BME280;56427;51.580;4.656;2023-01-25T09:24:32;103505.94;;;-0.87;100.00
69306;BME280;56427;51.580;4.656;2023-01-25T09:26:58;103505.09;;;-0.84;100.00
69306;BME280;56427;51.580;4.656;2023-01-25T09:29:24;103496.47;;;-1.05;100.00
69306;BME280;56427;51.580;4.656;2023-01-25T09:31:50;103508.38;;;-1.01;100.00
69306;BME280;56427;51.580;4.656;2023-01-25T09:34:16;103496.81;;;-0.59;100.00
69306;BME280;56427;51.580;4.656;2023-01-25T09:36:42;103505.06;;;-0.89;100.00
69306;BME280;56427;51.580;4.656;2023-01-25T09:39:11;103500.63;;;-1.15;100.00
69306;BME280;56427;51.580;4.656;2023-01-25T09:47:00;103497.38;;;-0.97;100.00
69306;BME280;56427;51.580;4.656;2023-01-25T09:49:43;103495.41;;;-1.27;100.00
69306;BME280;56427;51.580;4.656;2023-01-25T09:52:26;103498.09;;;-1.13;100.00
69306;BME280;56427;51.580;4.656;2023-01-25T09:54:57;103491.47;;;-0.88;100.00
69306;BME280;56427;51.580;4.656;2023-01-25T09:57:30;103484.59;;;-1.00;100.00
69306;BME280;56427;51.580;4.656;2023-01-25T10:00:00;103488.66;;;-1.25;100.00
69306;BME280;56427;51.580;4.656;2023-01-25T10:02:35;103486.88;;;-1.31;100.00
69306;BME280;56427;51.580;4.656;2023-01-25T10:05:11;103478.50;;;-1.16;100.00
69306;BME280;56427;51.580;4.656;2023-01-25T10:10:12;103470.94;;;-1.09;100.00
69306;BME280;56427;51.580;4.656;2023-01-25T10:12:41;103479.22;;;-1.31;100.00
69306;BME280;56427;51.580;4.656;2023-01-25T10:17:41;103469.78;;;-1.42;100.00
69306;BME280;56427;51.580;4.656;2023-01-25T10:20:22;103463.22;;;-1.17;100.00
69306;BME280;56427;51.580;4.656;2023-01-25T10:23:09;103461.59;;;-1.06;100.00
69306;BME280;56427;51.580;4.656;2023-01-25T10:25:58;103465.41;;;-1.57;100.00
69306;BME280;56427;51.580;4.656;2023-01-25T10:28:46;103463.66;;;-1.60;100.00
69306;BME280;56427;51.580;4.656;2023-01-25T10:31:19;103450.16;;;-1.54;100.00
69306;BME280;56427;51.580;4.656;2023-01-25T10:33:46;103446.31;;;-1.06;100.00
69306;BME280;56427;51.580;4.656;2023-01-25T10:36:17;103442.25;;;-0.78;100.00
69306;BME280;56427;51.580;4.656;2023-01-25T10:38:46;103432.97;;;-0.65;100.00
69306;BME280;56427;51.580;4.656;2023-01-25T10:41:19;103426.03;;;-0.90;100.00
69306;BME280;56427;51.580;4.656;2023-01-25T10:43:46;103419.13;;;-1.04;100.00
69306;BME280;56427;51.580;4.656;2023-01-25T10:46:21;103415.03;;;-0.85;100.00
69306;BME280;56427;51.580;4.656;2023-01-25T10:48:47;103409.03;;;-0.90;100.00
69306;BME280;56427;51.580;4.656;2023-01-25T10:51:30;103403.03;;;-1.00;100.00
69306;BME280;56427;51.580;4.656;2023-01-25T10:54:04;103398.69;;;-1.15;100.00
69306;BME280;56427;51.580;4.656;2023-01-25T10:56:32;103402.25;;;-0.89;100.00
69306;BME280;56427;51.580;4.656;2023-01-25T10:59:20;103398.06;;;-0.77;100.00
69306;BME280;56427;51.580;4.656;2023-01-25T11:01:47;103395.44;;;-0.94;100.00
69306;BME280;56427;51.580;4.656;2023-01-25T11:04:32;103385.88;;;-1.21;100.00
69306;BME280;56427;51.580;4.656;2023-01-25T11:07:00;103381.66;;;-1.17;100.00
69306;BME280;56427;51.580;4.656;2023-01-25T11:09:32;103379.19;;;-1.08;100.00
69306;BME280;56427;51.580;4.656;2023-01-25T11:11:59;103369.13;;;-0.83;100.00
69306;BME280;56427;51.580;4.656;2023-01-25T11:14:27;103367.38;;;-0.95;100.00
69306;BME280;56427;51.580;4.656;2023-01-25T11:16:54;103363.97;;;-0.93;100.00
69306;BME280;56427;51.580;4.656;2023-01-25T11:19:33;103352.97;;;-0.88;100.00
69306;BME280;56427;51.580;4.656;2023-01-25T11:22:02;103346.16;;;-0.89;100.00
69306;BME280;56427;51.580;4.656;2023-01-25T11:24:31;103338.66;;;-0.56;100.00
69306;BME280;56427;51.580;4.656;2023-01-25T11:27:18;103334.34;;;-0.72;100.00
69306;BME280;56427;51.580;4.656;2023-01-25T11:29:45;103325.84;;;-0.76;100.00
69306;BME280;56427;51.580;4.656;2023-01-25T11:32:17;103325.66;;;-1.08;100.00
69306;BME280;56427;51.580;4.656;2023-01-25T11:34:48;103313.63;;;-1.29;100.00
69306;BME280;56427;51.580;4.656;2023-01-25T11:43:16;103305.41;;;-0.82;100.00
69306;BME280;56427;51.580;4.656;2023-01-25T11:45:57;103300.31;;;-0.80;100.00
69306;BME280;56427;51.580;4.656;2023-01-25T11:51:26;103286.63;;;-0.99;100.00
69306;BME280;56427;51.580;4.656;2023-01-25T11:54:22;103278.16;;;-0.87;100.00
69306;BME280;56427;51.580;4.656;2023-01-25T11:57:11;103274.66;;;-1.13;100.00
69306;BME280;56427;51.580;4.656;2023-01-25T11:59:59;103277.06;;;-1.37;100.00
69306;BME280;56427;51.580;4.656;2023-01-25T12:02:54;103269.53;;;-1.16;100.00
69306;BME280;56427;51.580;4.656;2023-01-25T12:05:42;103263.69;;;-0.96;100.00
69306;BME280;56427;51.580;4.656;2023-01-25T12:08:23;103255.03;;;-1.31;100.00
69306;BME280;56427;51.580;4.656;2023-01-25T12:13:50;103238.16;;;-1.08;100.00
69306;BME280;56427;51.580;4.656;2023-01-25T12:29:43;103189.56;;;-1.45;100.00
69306;BME280;56427;51.580;4.656;2023-01-25T12:32:17;103181.97;;;-1.39;100.00
69306;BME280;56427;51.580;4.656;2023-01-25T12:35:12;103177.78;;;-1.25;100.00
69306;BME280;56427;51.580;4.656;2023-01-25T12:37:40;103179.47;;;-1.32;100.00
69306;BME280;56427;51.580;4.656;2023-01-25T12:40:18;103173.53;;;-1.23;100.00
69306;BME280;56427;51.580;4.656;2023-01-25T12:42:51;103167.59;;;-1.25;100.00
69306;BME280;56427;51.580;4.656;2023-01-25T12:45:23;103169.25;;;-1.28;100.00
69306;BME280;56427;51.580;4.656;2023-01-25T12:47:55;103162.47;;;-1.33;100.00
69306;BME280;56427;51.580;4.656;2023-01-25T12:50:38;103163.25;;;-1.49;100.00
69306;BME280;56427;51.580;4.656;2023-01-25T12:53:22;103153.97;;;-1.28;100.00
69306;BME280;56427;51.580;4.656;2023-01-25T12:55:49;103147.19;;;-1.22;100.00
69306;BME280;56427;51.580;4.656;2023-01-25T12:58:37;103129.38;;;-1.16;100.00
69306;BME280;56427;51.580;4.656;2023-01-25T13:15:43;103087.81;;;-1.07;100.00
69306;BME280;56427;51.580;4.656;2023-01-25T13:18:44;103081.88;;;-0.78;100.00
69306;BME280;56427;51.580;4.656;2023-01-25T13:21:41;103083.56;;;-0.89;100.00
69306;BME280;56427;51.580;4.656;2023-01-25T13:26:46;103077.63;;;-0.88;100.00
69306;BME280;56427;51.580;4.656;2023-01-25T13:31:56;103082.75;;;-0.84;100.00
69306;BME280;56427;51.580;4.656;2023-01-25T13:37:12;103081.03;;;-0.76;100.00
69306;BME280;56427;51.580;4.656;2023-01-25T13:39:42;103079.31;;;-0.78;100.00
69306;BME280;56427;51.580;4.656;2023-01-25T13:44:39;103081.03;;;-0.65;100.00
69306;BME280;56427;51.580;4.656;2023-01-25T13:47:10;103081.03;;;-0.80;100.00
69306;BME280;56427;51.580;4.656;2023-01-25T13:49:40;103076.75;;;-0.64;100.00
69306;BME280;56427;51.580;4.656;2023-01-25T13:52:06;103075.94;;;-0.56;100.00
69306;BME280;56427;51.580;4.656;2023-01-25T13:54:32;103071.66;;;-0.87;100.00
69306;BME280;56427;51.580;4.656;2023-01-25T13:57:14;103069.97;;;-0.70;100.00
69306;BME280;56427;51.580;4.656;2023-01-25T13:59:43;103066.56;;;-0.61;100.00